Red Dog, Alaska
Current Conditions -  °F | °C
As of 5:36 PM on Sunday 23 Nov 2014 (Local Time) from PAWN Reporting Station
Overcast Overcast  
Wind Chill:   Ceiling: 3700
Heat Index:   Visibility: 6mi
Dew Point:   Wind: 0mph
Humidity: 85%   Direction: NA
Pressure: 29.77"   Gusts: NA
Location:  68.03°N, 162.9°W
Report Text: PAWN 240236Z AUTO 00000KT 6SM OVC037 M16/M18 A2977 RMK AO1
Loading
Personal Weather Stations






























Interactive Weather Map New forecast layout! Learn more

10-Day Weather Forecast

Advertisements
Track Severe Weather on mobile